Archival Weather

Snohomish County (Paine Fld)

Everett, Washington (KPAE)

Report from: Thursday, October 26, 2023 6:53 PM PDT
Current time: Saturday, June 22, 2024 3:44 AM PDT

Current weather – Weather history – Daily summaries
Weather forecast

Temperature6.1°C (43.0°F)
Wind chill5.1°C (41.3°F)
Dew point2.8°C (37.0°F)
Winds 3 kts (1.5 m/s, 3.5 mph) North-Northwest (340°)
Visibility10 mi. (16.1 km)
Clouds Sky clear
Altimeter30.26 in.Hg (1025 mB)
Relative humidity79 %
Density altitude-1,360 ft. (-415 m)
Sea-level pressure102.5 kPa (1025 mB, 30.27 in.Hg)
Remarks Automated weather observing station with precipitation discriminator
Flight conditions Visual Meteorological Conditions
Raw dataKPAE 270153Z 34003KT 10SM CLR 06/03 A3026 RMK AO2 SLP250 T00610028
An error has occurred. This application may no longer respond until reloaded. Reload 🗙